Roseboro, North Carolina
Current Conditions -  °F | °C
As of 11:15 PM on Thursday 20 Nov 2014 (Local Time) from KCTZ Reporting Station
Clear Clear  
Wind Chill: 44°   Ceiling: Unl
Heat Index: 44°   Visibility: 10mi
Dew Point: 34°   Wind: 0mph
Humidity: 68%   Direction: NA
Pressure: 30.16"   Gusts: NA
Location:  34.95°N, 78.51°W
Report Text: KCTZ 210415Z AUTO 00000KT 10SM CLR 07/01 A3016 RMK AO2 T00660010
Loading
Personal Weather Stations






























Interactive Weather Map New forecast layout! Learn more

10-Day Weather Forecast

Advertisements
Track Severe Weather on mobile